sensor_id;sensor_type;location;lat;lon;timestamp;P1;durP1;ratioP1;P2;durP2;ratioP2
47894;SDS011;33653;52.302;8.134;2023-02-08T00:01:19;6.00;;;4.30;;
47894;SDS011;33653;52.302;8.134;2023-02-08T00:03:51;4.37;;;3.57;;
47894;SDS011;33653;52.302;8.134;2023-02-08T00:06:19;6.77;;;5.00;;
47894;SDS011;33653;52.302;8.134;2023-02-08T00:08:47;7.30;;;5.43;;
47894;SDS011;33653;52.302;8.134;2023-02-08T00:11:14;8.83;;;5.97;;
47894;SDS011;33653;52.302;8.134;2023-02-08T00:13:42;5.00;;;4.33;;
47894;SDS011;33653;52.302;8.134;2023-02-08T00:16:11;4.93;;;4.30;;
47894;SDS011;33653;52.302;8.134;2023-02-08T00:18:40;8.87;;;4.70;;
47894;SDS011;33653;52.302;8.134;2023-02-08T00:21:09;6.60;;;5.27;;
47894;SDS011;33653;52.302;8.134;2023-02-08T00:23:43;5.43;;;4.40;;
47894;SDS011;33653;52.302;8.134;2023-02-08T00:26:11;5.83;;;4.60;;
47894;SDS011;33653;52.302;8.134;2023-02-08T00:28:41;14.70;;;3.93;;
47894;SDS011;33653;52.302;8.134;2023-02-08T00:31:09;5.17;;;4.33;;
47894;SDS011;33653;52.302;8.134;2023-02-08T00:33:37;6.03;;;4.37;;
47894;SDS011;33653;52.302;8.134;2023-02-08T00:36:06;4.83;;;3.40;;
47894;SDS011;33653;52.302;8.134;2023-02-08T00:38:34;5.57;;;4.73;;
47894;SDS011;33653;52.302;8.134;2023-02-08T00:41:08;3.47;;;3.17;;
47894;SDS011;33653;52.302;8.134;2023-02-08T00:43:36;6.17;;;5.17;;
47894;SDS011;33653;52.302;8.134;2023-02-08T00:46:04;7.97;;;5.37;;
47894;SDS011;33653;52.302;8.134;2023-02-08T00:48:33;7.37;;;6.60;;
47894;SDS011;33653;52.302;8.134;2023-02-08T00:51:08;7.70;;;5.27;;
47894;SDS011;33653;52.302;8.134;2023-02-08T00:53:42;7.23;;;5.23;;
47894;SDS011;33653;52.302;8.134;2023-02-08T00:56:11;5.73;;;5.23;;
47894;SDS011;33653;52.302;8.134;2023-02-08T00:58:41;5.80;;;4.83;;
47894;SDS011;33653;52.302;8.134;2023-02-08T01:01:10;6.40;;;4.60;;
47894;SDS011;33653;52.302;8.134;2023-02-08T01:03:39;5.50;;;3.73;;
47894;SDS011;33653;52.302;8.134;2023-02-08T01:06:09;6.30;;;5.37;;
47894;SDS011;33653;52.302;8.134;2023-02-08T01:08:40;4.93;;;4.47;;
47894;SDS011;33653;52.302;8.134;2023-02-08T01:11:10;7.20;;;6.53;;
47894;SDS011;33653;52.302;8.134;2023-02-08T01:13:44;5.07;;;4.43;;
47894;SDS011;33653;52.302;8.134;2023-02-08T01:18:42;7.40;;;4.63;;
47894;SDS011;33653;52.302;8.134;2023-02-08T01:21:13;6.70;;;4.93;;
47894;SDS011;33653;52.302;8.134;2023-02-08T01:23:44;8.17;;;5.73;;
47894;SDS011;33653;52.302;8.134;2023-02-08T01:26:13;6.70;;;4.97;;
47894;SDS011;33653;52.302;8.134;2023-02-08T01:28:44;8.10;;;5.30;;
47894;SDS011;33653;52.302;8.134;2023-02-08T01:31:17;6.80;;;5.73;;
47894;SDS011;33653;52.302;8.134;2023-02-08T01:33:49;12.33;;;6.00;;
47894;SDS011;33653;52.302;8.134;2023-02-08T01:36:17;8.97;;;5.77;;
47894;SDS011;33653;52.302;8.134;2023-02-08T01:38:45;7.67;;;5.37;;
47894;SDS011;33653;52.302;8.134;2023-02-08T01:41:18;5.87;;;5.27;;
47894;SDS011;33653;52.302;8.134;2023-02-08T01:47:14;6.97;;;5.50;;
47894;SDS011;33653;52.302;8.134;2023-02-08T01:49:42;9.10;;;5.33;;
47894;SDS011;33653;52.302;8.134;2023-02-08T01:52:13;5.40;;;5.00;;
47894;SDS011;33653;52.302;8.134;2023-02-08T01:54:55;4.90;;;4.40;;
47894;SDS011;33653;52.302;8.134;2023-02-08T01:57:47;9.47;;;5.13;;
47894;SDS011;33653;52.302;8.134;2023-02-08T02:00:20;6.60;;;4.37;;
47894;SDS011;33653;52.302;8.134;2023-02-08T02:02:49;10.33;;;5.70;;
47894;SDS011;33653;52.302;8.134;2023-02-08T02:05:20;7.10;;;4.82;;
47894;SDS011;33653;52.302;8.134;2023-02-08T02:07:51;5.67;;;5.17;;
47894;SDS011;33653;52.302;8.134;2023-02-08T02:10:24;5.70;;;4.70;;
47894;SDS011;33653;52.302;8.134;2023-02-08T02:13:02;4.73;;;4.00;;
47894;SDS011;33653;52.302;8.134;2023-02-08T02:15:42;11.90;;;5.27;;
47894;SDS011;33653;52.302;8.134;2023-02-08T02:18:12;6.33;;;4.07;;
47894;SDS011;33653;52.302;8.134;2023-02-08T02:24:02;6.27;;;4.40;;
47894;SDS011;33653;52.302;8.134;2023-02-08T02:36:04;4.18;;;3.80;;
47894;SDS011;33653;52.302;8.134;2023-02-08T02:38:44;4.63;;;4.10;;
47894;SDS011;33653;52.302;8.134;2023-02-08T02:41:45;7.73;;;4.90;;
47894;SDS011;33653;52.302;8.134;2023-02-08T02:50:32;5.17;;;3.97;;
47894;SDS011;33653;52.302;8.134;2023-02-08T02:53:23;4.73;;;4.33;;
47894;SDS011;33653;52.302;8.134;2023-02-08T02:56:36;4.00;;;3.60;;
47894;SDS011;33653;52.302;8.134;2023-02-08T02:59:09;7.47;;;5.67;;
47894;SDS011;33653;52.302;8.134;2023-02-08T03:01:39;7.70;;;5.40;;
47894;SDS011;33653;52.302;8.134;2023-02-08T03:04:11;7.95;;;5.28;;
47894;SDS011;33653;52.302;8.134;2023-02-08T03:09:56;4.53;;;4.03;;
47894;SDS011;33653;52.302;8.134;2023-02-08T03:13:00;5.60;;;5.10;;
47894;SDS011;33653;52.302;8.134;2023-02-08T03:18:36;5.27;;;3.37;;
47894;SDS011;33653;52.302;8.134;2023-02-08T03:21:25;7.67;;;5.03;;
47894;SDS011;33653;52.302;8.134;2023-02-08T03:27:21;5.63;;;3.73;;
47894;SDS011;33653;52.302;8.134;2023-02-08T03:30:11;5.50;;;4.97;;
47894;SDS011;33653;52.302;8.134;2023-02-08T03:32:52;4.35;;;4.03;;
47894;SDS011;33653;52.302;8.134;2023-02-08T03:35:30;5.50;;;4.47;;
47894;SDS011;33653;52.302;8.134;2023-02-08T03:40:40;6.57;;;4.77;;
47894;SDS011;33653;52.302;8.134;2023-02-08T03:43:13;4.97;;;4.60;;
47894;SDS011;33653;52.302;8.134;2023-02-08T03:46:36;8.80;;;5.00;;
47894;SDS011;33653;52.302;8.134;2023-02-08T03:48:44;7.43;;;5.50;;
47894;SDS011;33653;52.302;8.134;2023-02-08T03:51:16;5.83;;;4.13;;
47894;SDS011;33653;52.302;8.134;2023-02-08T03:53:45;8.07;;;5.70;;
47894;SDS011;33653;52.302;8.134;2023-02-08T03:56:14;5.33;;;3.87;;
47894;SDS011;33653;52.302;8.134;2023-02-08T03:58:58;6.17;;;5.57;;
47894;SDS011;33653;52.302;8.134;2023-02-08T04:01:29;5.63;;;3.30;;
47894;SDS011;33653;52.302;8.134;2023-02-08T04:04:07;3.67;;;3.37;;
47894;SDS011;33653;52.302;8.134;2023-02-08T04:06:37;5.83;;;4.60;;
47894;SDS011;33653;52.302;8.134;2023-02-08T04:09:05;5.63;;;3.90;;
47894;SDS011;33653;52.302;8.134;2023-02-08T04:11:33;5.13;;;4.73;;
47894;SDS011;33653;52.302;8.134;2023-02-08T04:14:01;6.83;;;5.23;;
47894;SDS011;33653;52.302;8.134;2023-02-08T04:16:29;5.57;;;5.07;;
47894;SDS011;33653;52.302;8.134;2023-02-08T04:18:56;8.63;;;5.40;;
47894;SDS011;33653;52.302;8.134;2023-02-08T04:21:24;6.07;;;5.33;;
47894;SDS011;33653;52.302;8.134;2023-02-08T04:23:53;5.50;;;5.03;;
47894;SDS011;33653;52.302;8.134;2023-02-08T04:26:21;10.17;;;5.87;;
47894;SDS011;33653;52.302;8.134;2023-02-08T04:28:48;6.03;;;4.77;;
47894;SDS011;33653;52.302;8.134;2023-02-08T04:31:16;6.33;;;5.43;;
47894;SDS011;33653;52.302;8.134;2023-02-08T04:33:44;7.43;;;5.73;;
47894;SDS011;33653;52.302;8.134;2023-02-08T04:36:12;5.63;;;4.27;;
47894;SDS011;33653;52.302;8.134;2023-02-08T04:38:40;7.33;;;5.67;;
47894;SDS011;33653;52.302;8.134;2023-02-08T04:41:08;6.93;;;4.50;;
47894;SDS011;33653;52.302;8.134;2023-02-08T04:43:36;5.43;;;4.20;;
47894;SDS011;33653;52.302;8.134;2023-02-08T04:46:04;4.90;;;4.47;;
47894;SDS011;33653;52.302;8.134;2023-02-08T04:48:32;4.53;;;3.17;;
47894;SDS011;33653;52.302;8.134;2023-02-08T04:51:00;6.90;;;5.43;;
47894;SDS011;33653;52.302;8.134;2023-02-08T04:53:28;5.93;;;4.50;;
47894;SDS011;33653;52.302;8.134;2023-02-08T04:55:56;5.27;;;4.77;;
47894;SDS011;33653;52.302;8.134;2023-02-08T04:58:24;3.63;;;3.33;;
47894;SDS011;33653;52.302;8.134;2023-02-08T05:00:51;4.80;;;4.13;;
47894;SDS011;33653;52.302;8.134;2023-02-08T05:03:21;8.30;;;4.97;;
47894;SDS011;33653;52.302;8.134;2023-02-08T05:05:56;6.23;;;5.13;;
47894;SDS011;33653;52.302;8.134;2023-02-08T05:08:25;5.37;;;4.20;;
47894;SDS011;33653;52.302;8.134;2023-02-08T05:10:53;5.27;;;4.20;;
47894;SDS011;33653;52.302;8.134;2023-02-08T05:13:21;6.07;;;5.37;;
47894;SDS011;33653;52.302;8.134;2023-02-08T05:15:49;6.73;;;5.17;;
47894;SDS011;33653;52.302;8.134;2023-02-08T05:18:17;10.37;;;5.43;;
47894;SDS011;33653;52.302;8.134;2023-02-08T05:20:45;7.00;;;3.70;;
47894;SDS011;33653;52.302;8.134;2023-02-08T05:23:25;5.87;;;5.27;;
47894;SDS011;33653;52.302;8.134;2023-02-08T05:25:54;5.87;;;5.27;;
47894;SDS011;33653;52.302;8.134;2023-02-08T05:28:22;5.77;;;4.77;;
47894;SDS011;33653;52.302;8.134;2023-02-08T05:30:50;5.03;;;3.77;;
47894;SDS011;33653;52.302;8.134;2023-02-08T05:33:18;6.80;;;4.07;;
47894;SDS011;33653;52.302;8.134;2023-02-08T05:35:45;6.30;;;5.60;;
47894;SDS011;33653;52.302;8.134;2023-02-08T05:38:13;7.03;;;6.20;;
47894;SDS011;33653;52.302;8.134;2023-02-08T05:40:41;4.67;;;3.97;;
47894;SDS011;33653;52.302;8.134;2023-02-08T05:43:09;4.43;;;3.83;;
47894;SDS011;33653;52.302;8.134;2023-02-08T05:45:38;8.27;;;5.17;;
47894;SDS011;33653;52.302;8.134;2023-02-08T05:48:06;5.83;;;4.33;;
47894;SDS011;33653;52.302;8.134;2023-02-08T05:50:34;3.57;;;3.17;;
47894;SDS011;33653;52.302;8.134;2023-02-08T05:53:02;4.53;;;3.53;;
47894;SDS011;33653;52.302;8.134;2023-02-08T05:55:29;7.10;;;3.90;;
47894;SDS011;33653;52.302;8.134;2023-02-08T05:57:57;6.40;;;4.83;;
47894;SDS011;33653;52.302;8.134;2023-02-08T06:00:25;11.17;;;4.90;;
47894;SDS011;33653;52.302;8.134;2023-02-08T06:02:53;4.53;;;4.03;;
47894;SDS011;33653;52.302;8.134;2023-02-08T06:05:22;8.03;;;4.63;;
47894;SDS011;33653;52.302;8.134;2023-02-08T06:10:23;7.17;;;5.00;;
47894;SDS011;33653;52.302;8.134;2023-02-08T06:12:51;2.80;;;2.47;;
47894;SDS011;33653;52.302;8.134;2023-02-08T06:15:19;7.23;;;4.33;;
47894;SDS011;33653;52.302;8.134;2023-02-08T06:17:46;5.40;;;4.43;;
47894;SDS011;33653;52.302;8.134;2023-02-08T06:20:14;6.97;;;5.17;;
47894;SDS011;33653;52.302;8.134;2023-02-08T06:22:42;8.53;;;4.77;;
47894;SDS011;33653;52.302;8.134;2023-02-08T06:25:10;5.33;;;4.73;;
47894;SDS011;33653;52.302;8.134;2023-02-08T06:27:38;5.57;;;5.13;;
47894;SDS011;33653;52.302;8.134;2023-02-08T06:30:06;7.43;;;4.53;;
47894;SDS011;33653;52.302;8.134;2023-02-08T06:32:34;5.13;;;3.97;;
47894;SDS011;33653;52.302;8.134;2023-02-08T06:35:02;5.37;;;4.87;;
47894;SDS011;33653;52.302;8.134;2023-02-08T06:37:30;9.87;;;6.30;;
47894;SDS011;33653;52.302;8.134;2023-02-08T06:42:51;2.87;;;2.20;;
47894;SDS011;33653;52.302;8.134;2023-02-08T06:45:19;5.57;;;3.93;;
47894;SDS011;33653;52.302;8.134;2023-02-08T06:47:47;3.43;;;3.13;;
47894;SDS011;33653;52.302;8.134;2023-02-08T06:50:15;7.70;;;4.23;;
47894;SDS011;33653;52.302;8.134;2023-02-08T06:52:43;4.43;;;4.03;;
47894;SDS011;33653;52.302;8.134;2023-02-08T06:55:11;4.57;;;3.20;;
47894;SDS011;33653;52.302;8.134;2023-02-08T06:57:44;6.57;;;5.37;;
47894;SDS011;33653;52.302;8.134;2023-02-08T07:00:12;4.80;;;4.17;;
47894;SDS011;33653;52.302;8.134;2023-02-08T07:02:40;4.77;;;3.63;;
47894;SDS011;33653;52.302;8.134;2023-02-08T07:05:08;3.80;;;3.33;;
47894;SDS011;33653;52.302;8.134;2023-02-08T07:07:36;4.77;;;4.20;;
47894;SDS011;33653;52.302;8.134;2023-02-08T07:10:04;4.60;;;4.13;;
47894;SDS011;33653;52.302;8.134;2023-02-08T07:12:33;4.13;;;3.73;;
47894;SDS011;33653;52.302;8.134;2023-02-08T07:15:02;3.83;;;3.53;;
47894;SDS011;33653;52.302;8.134;2023-02-08T07:17:30;5.67;;;3.33;;
47894;SDS011;33653;52.302;8.134;2023-02-08T07:19:58;5.90;;;4.53;;
47894;SDS011;33653;52.302;8.134;2023-02-08T07:22:26;4.50;;;4.13;;
47894;SDS011;33653;52.302;8.134;2023-02-08T07:24:54;5.77;;;5.27;;
47894;SDS011;33653;52.302;8.134;2023-02-08T07:27:22;3.73;;;3.47;;
47894;SDS011;33653;52.302;8.134;2023-02-08T07:29:52;4.47;;;3.77;;
47894;SDS011;33653;52.302;8.134;2023-02-08T07:32:19;6.37;;;3.70;;
47894;SDS011;33653;52.302;8.134;2023-02-08T07:34:47;7.17;;;4.83;;
47894;SDS011;33653;52.302;8.134;2023-02-08T07:37:15;7.87;;;5.00;;
47894;SDS011;33653;52.302;8.134;2023-02-08T07:39:43;5.20;;;4.50;;
47894;SDS011;33653;52.302;8.134;2023-02-08T07:42:11;9.27;;;5.67;;
47894;SDS011;33653;52.302;8.134;2023-02-08T07:44:51;3.37;;;3.07;;
47894;SDS011;33653;52.302;8.134;2023-02-08T07:47:19;5.73;;;5.23;;
47894;SDS011;33653;52.302;8.134;2023-02-08T07:49:47;5.53;;;5.07;;
47894;SDS011;33653;52.302;8.134;2023-02-08T07:52:15;6.77;;;5.50;;
47894;SDS011;33653;52.302;8.134;2023-02-08T07:54:43;7.23;;;5.30;;
47894;SDS011;33653;52.302;8.134;2023-02-08T07:57:11;9.73;;;6.40;;
47894;SDS011;33653;52.302;8.134;2023-02-08T07:59:42;5.50;;;4.10;;
47894;SDS011;33653;52.302;8.134;2023-02-08T08:07:08;6.00;;;3.83;;
47894;SDS011;33653;52.302;8.134;2023-02-08T08:09:36;7.13;;;4.90;;
47894;SDS011;33653;52.302;8.134;2023-02-08T08:12:04;4.87;;;4.13;;
47894;SDS011;33653;52.302;8.134;2023-02-08T08:14:32;5.93;;;4.27;;
47894;SDS011;33653;52.302;8.134;2023-02-08T08:17:00;8.83;;;4.13;;
47894;SDS011;33653;52.302;8.134;2023-02-08T08:19:28;6.30;;;4.23;;
47894;SDS011;33653;52.302;8.134;2023-02-08T08:21:55;10.07;;;5.00;;
47894;SDS011;33653;52.302;8.134;2023-02-08T08:24:23;7.70;;;6.30;;
47894;SDS011;33653;52.302;8.134;2023-02-08T08:26:51;10.27;;;7.50;;
47894;SDS011;33653;52.302;8.134;2023-02-08T08:29:19;6.67;;;4.33;;
47894;SDS011;33653;52.302;8.134;2023-02-08T08:31:47;11.77;;;6.27;;
47894;SDS011;33653;52.302;8.134;2023-02-08T08:34:15;5.40;;;4.37;;
47894;SDS011;33653;52.302;8.134;2023-02-08T08:36:43;11.20;;;5.17;;
47894;SDS011;33653;52.302;8.134;2023-02-08T08:39:11;6.73;;;5.00;;
47894;SDS011;33653;52.302;8.134;2023-02-08T08:41:44;7.73;;;6.00;;
47894;SDS011;33653;52.302;8.134;2023-02-08T08:44:12;6.47;;;5.63;;
47894;SDS011;33653;52.302;8.134;2023-02-08T08:46:40;11.20;;;5.87;;
47894;SDS011;33653;52.302;8.134;2023-02-08T08:49:08;6.17;;;4.97;;
47894;SDS011;33653;52.302;8.134;2023-02-08T08:51:36;6.20;;;5.60;;
47894;SDS011;33653;52.302;8.134;2023-02-08T08:54:04;4.43;;;3.53;;
47894;SDS011;33653;52.302;8.134;2023-02-08T08:56:33;8.90;;;5.67;;
47894;SDS011;33653;52.302;8.134;2023-02-08T08:59:01;8.27;;;5.73;;
47894;SDS011;33653;52.302;8.134;2023-02-08T09:01:29;5.77;;;5.17;;
47894;SDS011;33653;52.302;8.134;2023-02-08T09:04:00;7.57;;;5.88;;
47894;SDS011;33653;52.302;8.134;2023-02-08T09:06:28;10.50;;;6.50;;
47894;SDS011;33653;52.302;8.134;2023-02-08T09:09:02;8.97;;;5.50;;
47894;SDS011;33653;52.302;8.134;2023-02-08T09:11:30;11.10;;;4.47;;
47894;SDS011;33653;52.302;8.134;2023-02-08T09:14:03;8.90;;;5.17;;
47894;SDS011;33653;52.302;8.134;2023-02-08T09:16:32;5.23;;;4.10;;
47894;SDS011;33653;52.302;8.134;2023-02-08T09:19:03;4.80;;;4.30;;
47894;SDS011;33653;52.302;8.134;2023-02-08T09:21:33;7.13;;;5.47;;
47894;SDS011;33653;52.302;8.134;2023-02-08T09:24:01;8.50;;;4.83;;
47894;SDS011;33653;52.302;8.134;2023-02-08T09:26:29;7.57;;;4.80;;
47894;SDS011;33653;52.302;8.134;2023-02-08T09:28:58;6.90;;;4.33;;
47894;SDS011;33653;52.302;8.134;2023-02-08T09:31:27;6.87;;;4.90;;
47894;SDS011;33653;52.302;8.134;2023-02-08T09:33:58;7.38;;;4.93;;
47894;SDS011;33653;52.302;8.134;2023-02-08T09:36:28;8.27;;;6.33;;
47894;SDS011;33653;52.302;8.134;2023-02-08T09:56:03;11.60;;;4.67;;
47894;SDS011;33653;52.302;8.134;2023-02-08T10:01:30;8.43;;;5.93;;
47894;SDS011;33653;52.302;8.134;2023-02-08T10:04:23;12.40;;;6.70;;
47894;SDS011;33653;52.302;8.134;2023-02-08T10:07:07;4.77;;;4.10;;
47894;SDS011;33653;52.302;8.134;2023-02-08T10:12:11;8.93;;;5.70;;
47894;SDS011;33653;52.302;8.134;2023-02-08T10:21:41;8.37;;;5.73;;
47894;SDS011;33653;52.302;8.134;2023-02-08T10:24:29;14.77;;;8.60;;
47894;SDS011;33653;52.302;8.134;2023-02-08T10:30:16;9.30;;;6.53;;
47894;SDS011;33653;52.302;8.134;2023-02-08T10:33:16;8.20;;;4.90;;
47894;SDS011;33653;52.302;8.134;2023-02-08T10:35:53;9.83;;;7.10;;
47894;SDS011;33653;52.302;8.134;2023-02-08T10:38:27;9.53;;;6.83;;
47894;SDS011;33653;52.302;8.134;2023-02-08T10:41:17;10.50;;;6.20;;
47894;SDS011;33653;52.302;8.134;2023-02-08T10:43:55;9.03;;;6.00;;
47894;SDS011;33653;52.302;8.134;2023-02-08T10:47:09;10.10;;;6.07;;
47894;SDS011;33653;52.302;8.134;2023-02-08T10:49:45;9.97;;;7.20;;
47894;SDS011;33653;52.302;8.134;2023-02-08T10:52:33;9.87;;;6.90;;
47894;SDS011;33653;52.302;8.134;2023-02-08T10:55:06;11.70;;;7.43;;
47894;SDS011;33653;52.302;8.134;2023-02-08T10:57:48;10.57;;;7.00;;
47894;SDS011;33653;52.302;8.134;2023-02-08T11:00:24;13.02;;;7.45;;
47894;SDS011;33653;52.302;8.134;2023-02-08T11:02:57;12.18;;;7.85;;
47894;SDS011;33653;52.302;8.134;2023-02-08T11:05:48;10.25;;;6.95;;
47894;SDS011;33653;52.302;8.134;2023-02-08T11:08:18;16.20;;;9.30;;
47894;SDS011;33653;52.302;8.134;2023-02-08T11:10:56;17.25;;;8.70;;
47894;SDS011;33653;52.302;8.134;2023-02-08T11:13:30;10.27;;;7.07;;
47894;SDS011;33653;52.302;8.134;2023-02-08T11:16:25;18.98;;;10.65;;
47894;SDS011;33653;52.302;8.134;2023-02-08T11:18:55;12.98;;;7.47;;
47894;SDS011;33653;52.302;8.134;2023-02-08T11:21:38;14.23;;;7.68;;
47894;SDS011;33653;52.302;8.134;2023-02-08T11:26:53;11.85;;;8.45;;
47894;SDS011;33653;52.302;8.134;2023-02-08T11:29:28;11.38;;;7.70;;
47894;SDS011;33653;52.302;8.134;2023-02-08T11:31:58;16.10;;;7.25;;
47894;SDS011;33653;52.302;8.134;2023-02-08T11:34:41;12.75;;;7.22;;
47894;SDS011;33653;52.302;8.134;2023-02-08T11:40:01;13.90;;;8.27;;
47894;SDS011;33653;52.302;8.134;2023-02-08T11:42:34;15.40;;;9.40;;
47894;SDS011;33653;52.302;8.134;2023-02-08T11:45:06;12.30;;;8.10;;
47894;SDS011;33653;52.302;8.134;2023-02-08T11:47:45;13.88;;;8.07;;
47894;SDS011;33653;52.302;8.134;2023-02-08T11:53:31;12.77;;;7.32;;
47894;SDS011;33653;52.302;8.134;2023-02-08T11:59:03;11.80;;;7.68;;
47894;SDS011;33653;52.302;8.134;2023-02-08T12:01:46;9.43;;;6.70;;
47894;SDS011;33653;52.302;8.134;2023-02-08T12:04:15;14.80;;;8.15;;
47894;SDS011;33653;52.302;8.134;2023-02-08T12:15:00;12.93;;;6.38;;
47894;SDS011;33653;52.302;8.134;2023-02-08T12:20:52;11.30;;;6.43;;
47894;SDS011;33653;52.302;8.134;2023-02-08T12:26:14;10.00;;;6.63;;
47894;SDS011;33653;52.302;8.134;2023-02-08T12:29:15;10.30;;;6.60;;
47894;SDS011;33653;52.302;8.134;2023-02-08T12:35:03;8.32;;;6.10;;
47894;SDS011;33653;52.302;8.134;2023-02-08T12:52:55;8.40;;;5.68;;
47894;SDS011;33653;52.302;8.134;2023-02-08T13:00:59;8.85;;;5.15;;
47894;SDS011;33653;52.302;8.134;2023-02-08T13:03:52;13.45;;;7.63;;
47894;SDS011;33653;52.302;8.134;2023-02-08T13:06:41;12.52;;;8.02;;
47894;SDS011;33653;52.302;8.134;2023-02-08T13:12:06;13.48;;;7.47;;
47894;SDS011;33653;52.302;8.134;2023-02-08T13:14:53;7.07;;;4.40;;
47894;SDS011;33653;52.302;8.134;2023-02-08T13:17:39;8.95;;;5.60;;
47894;SDS011;33653;52.302;8.134;2023-02-08T13:29:22;8.68;;;4.55;;
47894;SDS011;33653;52.302;8.134;2023-02-08T13:31:56;8.43;;;4.30;;
47894;SDS011;33653;52.302;8.134;2023-02-08T13:34:49;5.93;;;3.72;;
47894;SDS011;33653;52.302;8.134;2023-02-08T13:37:24;6.03;;;3.83;;
47894;SDS011;33653;52.302;8.134;2023-02-08T13:39:59;6.07;;;3.83;;
47894;SDS011;33653;52.302;8.134;2023-02-08T13:42:47;5.78;;;3.67;;
47894;SDS011;33653;52.302;8.134;2023-02-08T13:48:17;8.00;;;4.05;;
47894;SDS011;33653;52.302;8.134;2023-02-08T13:50:50;5.63;;;3.95;;
47894;SDS011;33653;52.302;8.134;2023-02-08T14:04:38;5.35;;;3.08;;
47894;SDS011;33653;52.302;8.134;2023-02-08T14:07:13;5.45;;;3.70;;
47894;SDS011;33653;52.302;8.134;2023-02-08T14:09:43;5.57;;;2.92;;
47894;SDS011;33653;52.302;8.134;2023-02-08T14:12:38;6.13;;;3.63;;
47894;SDS011;33653;52.302;8.134;2023-02-08T14:17:52;5.20;;;3.38;;
47894;SDS011;33653;52.302;8.134;2023-02-08T14:23:42;5.43;;;3.45;;
47894;SDS011;33653;52.302;8.134;2023-02-08T14:26:17;3.92;;;2.85;;
47894;SDS011;33653;52.302;8.134;2023-02-08T14:28:53;5.60;;;3.55;;
47894;SDS011;33653;52.302;8.134;2023-02-08T14:31:42;8.25;;;3.85;;
47894;SDS011;33653;52.302;8.134;2023-02-08T14:34:20;6.22;;;4.13;;
47894;SDS011;33653;52.302;8.134;2023-02-08T14:36:56;8.13;;;4.55;;
47894;SDS011;33653;52.302;8.134;2023-02-08T14:41:00;6.55;;;3.60;;
47894;SDS011;33653;52.302;8.134;2023-02-08T14:42:58;9.55;;;4.20;;
47894;SDS011;33653;52.302;8.134;2023-02-08T14:45:48;6.80;;;4.93;;
47894;SDS011;33653;52.302;8.134;2023-02-08T14:48:30;11.75;;;5.15;;
47894;SDS011;33653;52.302;8.134;2023-02-08T14:51:20;8.80;;;5.30;;
47894;SDS011;33653;52.302;8.134;2023-02-08T14:53:57;12.07;;;4.90;;
47894;SDS011;33653;52.302;8.134;2023-02-08T14:57:01;8.20;;;4.35;;
47894;SDS011;33653;52.302;8.134;2023-02-08T14:59:33;8.18;;;4.55;;
47894;SDS011;33653;52.302;8.134;2023-02-08T15:02:02;7.93;;;4.15;;
47894;SDS011;33653;52.302;8.134;2023-02-08T15:04:41;6.50;;;3.38;;
47894;SDS011;33653;52.302;8.134;2023-02-08T15:10:09;6.22;;;3.13;;
47894;SDS011;33653;52.302;8.134;2023-02-08T15:12:45;6.75;;;3.40;;
47894;SDS011;33653;52.302;8.134;2023-02-08T15:18:06;5.18;;;3.55;;
47894;SDS011;33653;52.302;8.134;2023-02-08T15:21:02;13.13;;;7.05;;
47894;SDS011;33653;52.302;8.134;2023-02-08T15:23:33;7.40;;;4.53;;
47894;SDS011;33653;52.302;8.134;2023-02-08T15:26:05;6.78;;;3.83;;
47894;SDS011;33653;52.302;8.134;2023-02-08T15:28:47;6.43;;;4.13;;
47894;SDS011;33653;52.302;8.134;2023-02-08T15:31:16;6.88;;;4.25;;
47894;SDS011;33653;52.302;8.134;2023-02-08T15:33:47;9.20;;;3.90;;
47894;SDS011;33653;52.302;8.134;2023-02-08T15:36:17;8.50;;;4.32;;
47894;SDS011;33653;52.302;8.134;2023-02-08T15:38:52;7.03;;;3.85;;
47894;SDS011;33653;52.302;8.134;2023-02-08T15:41:24;6.18;;;3.70;;
47894;SDS011;33653;52.302;8.134;2023-02-08T15:44:00;6.40;;;3.38;;
47894;SDS011;33653;52.302;8.134;2023-02-08T15:46:49;7.60;;;3.45;;
47894;SDS011;33653;52.302;8.134;2023-02-08T15:49:29;6.10;;;3.50;;
47894;SDS011;33653;52.302;8.134;2023-02-08T15:52:06;5.97;;;3.13;;
47894;SDS011;33653;52.302;8.134;2023-02-08T15:54:34;7.53;;;3.30;;
47894;SDS011;33653;52.302;8.134;2023-02-08T15:57:04;6.90;;;3.92;;
47894;SDS011;33653;52.302;8.134;2023-02-08T15:59:42;9.90;;;4.15;;
47894;SDS011;33653;52.302;8.134;2023-02-08T16:02:29;9.05;;;6.00;;
47894;SDS011;33653;52.302;8.134;2023-02-08T16:05:09;10.93;;;5.55;;
47894;SDS011;33653;52.302;8.134;2023-02-08T16:07:46;8.10;;;4.90;;
47894;SDS011;33653;52.302;8.134;2023-02-08T16:12:57;5.97;;;3.35;;
47894;SDS011;33653;52.302;8.134;2023-02-08T16:23:48;6.97;;;4.28;;
47894;SDS011;33653;52.302;8.134;2023-02-08T16:26:25;3.95;;;2.60;;
47894;SDS011;33653;52.302;8.134;2023-02-08T16:29:01;6.07;;;2.92;;
47894;SDS011;33653;52.302;8.134;2023-02-08T16:31:44;6.75;;;3.85;;
47894;SDS011;33653;52.302;8.134;2023-02-08T16:34:17;6.63;;;3.55;;
47894;SDS011;33653;52.302;8.134;2023-02-08T16:44:40;7.75;;;4.13;;
47894;SDS011;33653;52.302;8.134;2023-02-08T16:47:33;6.40;;;4.15;;
47894;SDS011;33653;52.302;8.134;2023-02-08T16:50:09;8.35;;;3.63;;
47894;SDS011;33653;52.302;8.134;2023-02-08T16:52:41;7.50;;;4.43;;
47894;SDS011;33653;52.302;8.134;2023-02-08T16:55:14;11.27;;;4.60;;
47894;SDS011;33653;52.302;8.134;2023-02-08T16:57:49;9.20;;;4.88;;
47894;SDS011;33653;52.302;8.134;2023-02-08T17:00:29;6.75;;;4.18;;
47894;SDS011;33653;52.302;8.134;2023-02-08T17:03:00;7.47;;;4.00;;
47894;SDS011;33653;52.302;8.134;2023-02-08T17:05:36;7.20;;;4.45;;
47894;SDS011;33653;52.302;8.134;2023-02-08T17:08:17;4.57;;;3.67;;
47894;SDS011;33653;52.302;8.134;2023-02-08T17:10:48;6.57;;;4.07;;
47894;SDS011;33653;52.302;8.134;2023-02-08T17:13:19;6.78;;;3.85;;
47894;SDS011;33653;52.302;8.134;2023-02-08T17:15:56;6.25;;;4.32;;
47894;SDS011;33653;52.302;8.134;2023-02-08T17:18:33;4.13;;;3.72;;
47894;SDS011;33653;52.302;8.134;2023-02-08T17:21:01;6.22;;;3.50;;
47894;SDS011;33653;52.302;8.134;2023-02-08T17:23:30;7.20;;;4.95;;
47894;SDS011;33653;52.302;8.134;2023-02-08T17:25:58;5.97;;;4.10;;
47894;SDS011;33653;52.302;8.134;2023-02-08T17:28:26;4.90;;;3.50;;
47894;SDS011;33653;52.302;8.134;2023-02-08T17:30:54;3.70;;;3.20;;
47894;SDS011;33653;52.302;8.134;2023-02-08T17:33:22;6.85;;;4.68;;
47894;SDS011;33653;52.302;8.134;2023-02-08T17:35:51;4.45;;;3.65;;
47894;SDS011;33653;52.302;8.134;2023-02-08T17:38:20;3.83;;;3.25;;
47894;SDS011;33653;52.302;8.134;2023-02-08T17:40:48;5.13;;;4.10;;
47894;SDS011;33653;52.302;8.134;2023-02-08T17:43:16;7.32;;;3.80;;
47894;SDS011;33653;52.302;8.134;2023-02-08T17:45:44;3.97;;;3.00;;
47894;SDS011;33653;52.302;8.134;2023-02-08T17:48:13;8.00;;;3.90;;
47894;SDS011;33653;52.302;8.134;2023-02-08T17:50:41;5.22;;;3.92;;
47894;SDS011;33653;52.302;8.134;2023-02-08T17:53:13;4.13;;;3.13;;
47894;SDS011;33653;52.302;8.134;2023-02-08T17:55:42;5.90;;;4.13;;
47894;SDS011;33653;52.302;8.134;2023-02-08T17:58:12;8.85;;;4.35;;
47894;SDS011;33653;52.302;8.134;2023-02-08T18:00:40;6.50;;;4.37;;
47894;SDS011;33653;52.302;8.134;2023-02-08T18:03:08;6.50;;;3.50;;
47894;SDS011;33653;52.302;8.134;2023-02-08T18:05:37;4.47;;;4.03;;
47894;SDS011;33653;52.302;8.134;2023-02-08T18:08:05;6.67;;;4.67;;
47894;SDS011;33653;52.302;8.134;2023-02-08T18:10:38;11.73;;;4.83;;
47894;SDS011;33653;52.302;8.134;2023-02-08T18:13:06;4.97;;;3.87;;
47894;SDS011;33653;52.302;8.134;2023-02-08T18:15:34;7.83;;;3.77;;
47894;SDS011;33653;52.302;8.134;2023-02-08T18:18:02;6.03;;;4.70;;
47894;SDS011;33653;52.302;8.134;2023-02-08T18:20:30;6.57;;;4.53;;
47894;SDS011;33653;52.302;8.134;2023-02-08T18:22:58;16.27;;;3.40;;
47894;SDS011;33653;52.302;8.134;2023-02-08T18:25:26;6.20;;;3.73;;
47894;SDS011;33653;52.302;8.134;2023-02-08T18:27:55;10.77;;;4.63;;